sensor_id;sensor_type;location;lat;lon;timestamp;P1;durP1;ratioP1;P2;durP2;ratioP2
40453;SDS011;26160;51.858;4.398;2022-12-18T00:02:11;144.47;;;44.70;;
40453;SDS011;26160;51.858;4.398;2022-12-18T00:04:37;168.33;;;51.83;;
40453;SDS011;26160;51.858;4.398;2022-12-18T00:07:03;143.50;;;47.73;;
40453;SDS011;26160;51.858;4.398;2022-12-18T00:09:29;123.90;;;44.07;;
40453;SDS011;26160;51.858;4.398;2022-12-18T00:11:56;165.63;;;47.27;;
40453;SDS011;26160;51.858;4.398;2022-12-18T00:14:22;135.17;;;45.87;;
40453;SDS011;26160;51.858;4.398;2022-12-18T00:16:48;141.30;;;45.53;;
40453;SDS011;26160;51.858;4.398;2022-12-18T00:19:14;146.60;;;48.33;;
40453;SDS011;26160;51.858;4.398;2022-12-18T00:21:41;157.23;;;50.20;;
40453;SDS011;26160;51.858;4.398;2022-12-18T00:24:08;139.57;;;46.07;;
40453;SDS011;26160;51.858;4.398;2022-12-18T00:26:35;121.00;;;44.07;;
40453;SDS011;26160;51.858;4.398;2022-12-18T00:29:04;142.53;;;43.87;;
40453;SDS011;26160;51.858;4.398;2022-12-18T00:34:02;169.67;;;48.37;;
40453;SDS011;26160;51.858;4.398;2022-12-18T00:36:30;132.13;;;47.20;;
40453;SDS011;26160;51.858;4.398;2022-12-18T00:38:59;138.47;;;46.63;;
40453;SDS011;26160;51.858;4.398;2022-12-18T00:41:26;140.43;;;46.33;;
40453;SDS011;26160;51.858;4.398;2022-12-18T00:44:12;127.90;;;44.17;;
40453;SDS011;26160;51.858;4.398;2022-12-18T00:46:40;130.37;;;44.97;;
40453;SDS011;26160;51.858;4.398;2022-12-18T00:49:07;121.97;;;42.50;;
40453;SDS011;26160;51.858;4.398;2022-12-18T00:51:33;135.73;;;46.27;;
40453;SDS011;26160;51.858;4.398;2022-12-18T00:53:59;163.33;;;50.00;;
40453;SDS011;26160;51.858;4.398;2022-12-18T00:56:25;131.30;;;42.87;;
40453;SDS011;26160;51.858;4.398;2022-12-18T00:58:51;148.90;;;42.30;;
40453;SDS011;26160;51.858;4.398;2022-12-18T01:01:17;141.67;;;44.50;;
40453;SDS011;26160;51.858;4.398;2022-12-18T01:03:44;147.33;;;46.53;;
40453;SDS011;26160;51.858;4.398;2022-12-18T01:06:13;144.77;;;45.20;;
40453;SDS011;26160;51.858;4.398;2022-12-18T01:08:40;117.80;;;42.00;;
40453;SDS011;26160;51.858;4.398;2022-12-18T01:11:08;147.90;;;45.60;;
40453;SDS011;26160;51.858;4.398;2022-12-18T01:13:39;149.93;;;46.03;;
40453;SDS011;26160;51.858;4.398;2022-12-18T01:16:05;145.13;;;45.83;;
40453;SDS011;26160;51.858;4.398;2022-12-18T01:18:32;138.20;;;45.20;;
40453;SDS011;26160;51.858;4.398;2022-12-18T01:20:58;132.23;;;45.03;;
40453;SDS011;26160;51.858;4.398;2022-12-18T01:23:27;131.87;;;43.33;;
40453;SDS011;26160;51.858;4.398;2022-12-18T01:25:53;149.13;;;46.10;;
40453;SDS011;26160;51.858;4.398;2022-12-18T01:28:19;191.10;;;52.37;;
40453;SDS011;26160;51.858;4.398;2022-12-18T01:30:45;121.00;;;42.90;;
40453;SDS011;26160;51.858;4.398;2022-12-18T01:33:11;139.83;;;45.13;;
40453;SDS011;26160;51.858;4.398;2022-12-18T01:35:44;120.50;;;42.07;;
40453;SDS011;26160;51.858;4.398;2022-12-18T01:38:10;142.02;;;45.72;;
40453;SDS011;26160;51.858;4.398;2022-12-18T01:40:36;139.03;;;47.23;;
40453;SDS011;26160;51.858;4.398;2022-12-18T01:43:02;132.17;;;43.47;;
40453;SDS011;26160;51.858;4.398;2022-12-18T01:45:29;130.37;;;44.03;;
40453;SDS011;26160;51.858;4.398;2022-12-18T01:48:04;152.07;;;46.80;;
40453;SDS011;26160;51.858;4.398;2022-12-18T01:50:40;133.87;;;43.97;;
40453;SDS011;26160;51.858;4.398;2022-12-18T01:53:11;136.47;;;43.70;;
40453;SDS011;26160;51.858;4.398;2022-12-18T01:55:45;119.28;;;42.67;;
40453;SDS011;26160;51.858;4.398;2022-12-18T01:58:13;128.30;;;42.60;;
40453;SDS011;26160;51.858;4.398;2022-12-18T02:03:16;127.17;;;42.40;;
40453;SDS011;26160;51.858;4.398;2022-12-18T02:05:47;161.33;;;48.37;;
40453;SDS011;26160;51.858;4.398;2022-12-18T02:08:30;144.50;;;44.25;;
40453;SDS011;26160;51.858;4.398;2022-12-18T02:11:05;170.23;;;47.53;;
40453;SDS011;26160;51.858;4.398;2022-12-18T02:14:01;137.50;;;44.17;;
40453;SDS011;26160;51.858;4.398;2022-12-18T02:22:24;153.45;;;48.58;;
40453;SDS011;26160;51.858;4.398;2022-12-18T02:25:05;181.07;;;51.50;;
40453;SDS011;26160;51.858;4.398;2022-12-18T02:27:53;130.27;;;42.37;;
40453;SDS011;26160;51.858;4.398;2022-12-18T02:30:21;127.57;;;42.50;;
40453;SDS011;26160;51.858;4.398;2022-12-18T02:32:52;124.27;;;42.50;;
40453;SDS011;26160;51.858;4.398;2022-12-18T02:35:23;106.80;;;39.90;;
40453;SDS011;26160;51.858;4.398;2022-12-18T02:37:56;103.40;;;38.50;;
40453;SDS011;26160;51.858;4.398;2022-12-18T02:40:24;99.53;;;37.17;;
40453;SDS011;26160;51.858;4.398;2022-12-18T02:42:52;97.50;;;36.33;;
40453;SDS011;26160;51.858;4.398;2022-12-18T02:45:19;101.80;;;35.40;;
40453;SDS011;26160;51.858;4.398;2022-12-18T02:47:46;94.37;;;35.03;;
40453;SDS011;26160;51.858;4.398;2022-12-18T02:50:36;110.73;;;38.53;;
40453;SDS011;26160;51.858;4.398;2022-12-18T02:53:06;108.57;;;39.83;;
40453;SDS011;26160;51.858;4.398;2022-12-18T02:58:16;86.93;;;34.20;;
40453;SDS011;26160;51.858;4.398;2022-12-18T03:06:21;96.13;;;35.53;;
40453;SDS011;26160;51.858;4.398;2022-12-18T03:08:51;84.57;;;34.37;;
40453;SDS011;26160;51.858;4.398;2022-12-18T03:11:23;93.80;;;34.17;;
40453;SDS011;26160;51.858;4.398;2022-12-18T03:14:11;100.47;;;36.00;;
40453;SDS011;26160;51.858;4.398;2022-12-18T03:16:40;93.67;;;34.10;;
40453;SDS011;26160;51.858;4.398;2022-12-18T03:19:11;88.03;;;36.30;;
40453;SDS011;26160;51.858;4.398;2022-12-18T03:21:45;90.50;;;35.97;;
40453;SDS011;26160;51.858;4.398;2022-12-18T03:24:13;94.40;;;36.83;;
40453;SDS011;26160;51.858;4.398;2022-12-18T03:26:41;87.93;;;34.83;;
40453;SDS011;26160;51.858;4.398;2022-12-18T03:29:12;102.90;;;37.70;;
40453;SDS011;26160;51.858;4.398;2022-12-18T03:31:48;90.03;;;34.27;;
40453;SDS011;26160;51.858;4.398;2022-12-18T03:34:26;92.40;;;36.35;;
40453;SDS011;26160;51.858;4.398;2022-12-18T03:36:56;89.97;;;34.63;;
40453;SDS011;26160;51.858;4.398;2022-12-18T03:39:23;85.37;;;34.30;;
40453;SDS011;26160;51.858;4.398;2022-12-18T03:42:01;91.77;;;34.60;;
40453;SDS011;26160;51.858;4.398;2022-12-18T03:44:36;80.88;;;33.17;;
40453;SDS011;26160;51.858;4.398;2022-12-18T03:47:15;89.13;;;34.53;;
40453;SDS011;26160;51.858;4.398;2022-12-18T03:52:22;87.00;;;34.37;;
40453;SDS011;26160;51.858;4.398;2022-12-18T03:57:21;82.33;;;31.07;;
40453;SDS011;26160;51.858;4.398;2022-12-18T03:59:50;85.57;;;33.27;;
40453;SDS011;26160;51.858;4.398;2022-12-18T04:02:22;82.32;;;32.42;;
40453;SDS011;26160;51.858;4.398;2022-12-18T04:04:51;84.77;;;31.70;;
40453;SDS011;26160;51.858;4.398;2022-12-18T04:07:20;85.53;;;32.13;;
40453;SDS011;26160;51.858;4.398;2022-12-18T04:09:48;77.40;;;31.70;;
40453;SDS011;26160;51.858;4.398;2022-12-18T04:12:15;81.70;;;29.87;;
40453;SDS011;26160;51.858;4.398;2022-12-18T04:14:41;74.43;;;30.37;;
40453;SDS011;26160;51.858;4.398;2022-12-18T04:17:07;86.73;;;31.33;;
40453;SDS011;26160;51.858;4.398;2022-12-18T04:19:34;83.73;;;31.70;;
40453;SDS011;26160;51.858;4.398;2022-12-18T04:22:00;80.17;;;30.80;;
40453;SDS011;26160;51.858;4.398;2022-12-18T04:24:26;74.80;;;29.37;;
40453;SDS011;26160;51.858;4.398;2022-12-18T04:26:52;87.40;;;33.63;;
40453;SDS011;26160;51.858;4.398;2022-12-18T04:29:19;81.30;;;32.10;;
40453;SDS011;26160;51.858;4.398;2022-12-18T04:31:45;88.90;;;33.03;;
40453;SDS011;26160;51.858;4.398;2022-12-18T04:34:11;77.40;;;31.87;;
40453;SDS011;26160;51.858;4.398;2022-12-18T04:36:37;82.40;;;31.60;;
40453;SDS011;26160;51.858;4.398;2022-12-18T04:39:03;75.57;;;30.00;;
40453;SDS011;26160;51.858;4.398;2022-12-18T04:41:29;73.67;;;28.70;;
40453;SDS011;26160;51.858;4.398;2022-12-18T04:43:55;66.60;;;27.20;;
40453;SDS011;26160;51.858;4.398;2022-12-18T04:46:21;80.30;;;30.67;;
40453;SDS011;26160;51.858;4.398;2022-12-18T04:48:48;73.80;;;31.00;;
40453;SDS011;26160;51.858;4.398;2022-12-18T04:51:14;85.47;;;29.73;;
40453;SDS011;26160;51.858;4.398;2022-12-18T04:53:40;74.77;;;30.90;;
40453;SDS011;26160;51.858;4.398;2022-12-18T04:56:08;79.33;;;30.57;;
40453;SDS011;26160;51.858;4.398;2022-12-18T04:58:36;74.60;;;27.43;;
40453;SDS011;26160;51.858;4.398;2022-12-18T05:01:03;80.90;;;29.13;;
40453;SDS011;26160;51.858;4.398;2022-12-18T05:03:30;82.53;;;32.50;;
40453;SDS011;26160;51.858;4.398;2022-12-18T05:05:56;81.10;;;30.43;;
40453;SDS011;26160;51.858;4.398;2022-12-18T05:08:23;81.70;;;30.73;;
40453;SDS011;26160;51.858;4.398;2022-12-18T05:10:49;84.43;;;32.63;;
40453;SDS011;26160;51.858;4.398;2022-12-18T05:13:15;70.30;;;27.20;;
40453;SDS011;26160;51.858;4.398;2022-12-18T05:15:41;72.43;;;27.63;;
40453;SDS011;26160;51.858;4.398;2022-12-18T05:18:07;90.80;;;32.97;;
40453;SDS011;26160;51.858;4.398;2022-12-18T05:20:34;75.90;;;29.47;;
40453;SDS011;26160;51.858;4.398;2022-12-18T05:23:00;71.70;;;28.43;;
40453;SDS011;26160;51.858;4.398;2022-12-18T05:25:26;75.27;;;28.77;;
40453;SDS011;26160;51.858;4.398;2022-12-18T05:27:52;86.33;;;29.97;;
40453;SDS011;26160;51.858;4.398;2022-12-18T05:30:18;76.33;;;29.97;;
40453;SDS011;26160;51.858;4.398;2022-12-18T05:32:44;74.53;;;28.53;;
40453;SDS011;26160;51.858;4.398;2022-12-18T05:35:10;79.03;;;29.27;;
40453;SDS011;26160;51.858;4.398;2022-12-18T05:37:37;71.20;;;28.33;;
40453;SDS011;26160;51.858;4.398;2022-12-18T05:40:03;68.67;;;27.80;;
40453;SDS011;26160;51.858;4.398;2022-12-18T05:42:30;74.00;;;29.60;;
40453;SDS011;26160;51.858;4.398;2022-12-18T05:44:56;69.30;;;28.80;;
40453;SDS011;26160;51.858;4.398;2022-12-18T05:47:22;79.40;;;29.83;;
40453;SDS011;26160;51.858;4.398;2022-12-18T05:49:48;74.40;;;29.47;;
40453;SDS011;26160;51.858;4.398;2022-12-18T05:52:15;75.53;;;28.60;;
40453;SDS011;26160;51.858;4.398;2022-12-18T05:54:41;71.03;;;27.67;;
40453;SDS011;26160;51.858;4.398;2022-12-18T05:57:07;75.40;;;29.87;;
40453;SDS011;26160;51.858;4.398;2022-12-18T05:59:33;72.63;;;27.87;;
40453;SDS011;26160;51.858;4.398;2022-12-18T06:01:59;67.00;;;27.30;;
40453;SDS011;26160;51.858;4.398;2022-12-18T06:04:26;70.57;;;28.00;;
40453;SDS011;26160;51.858;4.398;2022-12-18T06:06:54;64.53;;;25.83;;
40453;SDS011;26160;51.858;4.398;2022-12-18T06:09:20;81.40;;;33.33;;
40453;SDS011;26160;51.858;4.398;2022-12-18T06:11:46;83.70;;;31.80;;
40453;SDS011;26160;51.858;4.398;2022-12-18T06:14:12;78.63;;;29.43;;
40453;SDS011;26160;51.858;4.398;2022-12-18T06:16:38;75.70;;;26.17;;
40453;SDS011;26160;51.858;4.398;2022-12-18T06:19:05;70.60;;;26.93;;
40453;SDS011;26160;51.858;4.398;2022-12-18T06:21:31;70.90;;;27.43;;
40453;SDS011;26160;51.858;4.398;2022-12-18T06:23:58;68.33;;;26.60;;
40453;SDS011;26160;51.858;4.398;2022-12-18T06:26:24;69.57;;;28.80;;
40453;SDS011;26160;51.858;4.398;2022-12-18T06:28:51;66.43;;;27.37;;
40453;SDS011;26160;51.858;4.398;2022-12-18T06:31:17;59.30;;;26.73;;
40453;SDS011;26160;51.858;4.398;2022-12-18T06:33:43;66.53;;;28.27;;
40453;SDS011;26160;51.858;4.398;2022-12-18T06:36:10;65.07;;;26.70;;
40453;SDS011;26160;51.858;4.398;2022-12-18T06:38:38;74.20;;;28.13;;
40453;SDS011;26160;51.858;4.398;2022-12-18T06:41:07;70.63;;;26.13;;
40453;SDS011;26160;51.858;4.398;2022-12-18T06:43:34;66.47;;;28.03;;
40453;SDS011;26160;51.858;4.398;2022-12-18T06:46:00;60.57;;;25.33;;
40453;SDS011;26160;51.858;4.398;2022-12-18T06:48:27;61.60;;;25.37;;
40453;SDS011;26160;51.858;4.398;2022-12-18T06:50:53;62.50;;;26.47;;
40453;SDS011;26160;51.858;4.398;2022-12-18T06:53:19;60.37;;;26.70;;
40453;SDS011;26160;51.858;4.398;2022-12-18T06:55:45;65.73;;;26.07;;
40453;SDS011;26160;51.858;4.398;2022-12-18T06:58:11;60.47;;;26.47;;
40453;SDS011;26160;51.858;4.398;2022-12-18T07:00:38;59.37;;;26.20;;
40453;SDS011;26160;51.858;4.398;2022-12-18T07:03:04;63.87;;;26.60;;
40453;SDS011;26160;51.858;4.398;2022-12-18T07:05:30;56.60;;;25.27;;
40453;SDS011;26160;51.858;4.398;2022-12-18T07:07:57;63.43;;;26.17;;
40453;SDS011;26160;51.858;4.398;2022-12-18T07:10:23;54.83;;;24.23;;
40453;SDS011;26160;51.858;4.398;2022-12-18T07:12:49;53.70;;;24.27;;
40453;SDS011;26160;51.858;4.398;2022-12-18T07:15:16;54.40;;;23.93;;
40453;SDS011;26160;51.858;4.398;2022-12-18T07:17:42;51.60;;;22.03;;
40453;SDS011;26160;51.858;4.398;2022-12-18T07:20:08;50.20;;;24.20;;
40453;SDS011;26160;51.858;4.398;2022-12-18T07:22:35;47.87;;;22.63;;
40453;SDS011;26160;51.858;4.398;2022-12-18T07:25:01;54.47;;;25.17;;
40453;SDS011;26160;51.858;4.398;2022-12-18T07:27:27;45.03;;;21.80;;
40453;SDS011;26160;51.858;4.398;2022-12-18T07:29:53;54.60;;;24.07;;
40453;SDS011;26160;51.858;4.398;2022-12-18T07:32:20;47.20;;;22.73;;
40453;SDS011;26160;51.858;4.398;2022-12-18T07:34:46;43.43;;;21.57;;
40453;SDS011;26160;51.858;4.398;2022-12-18T07:37:12;47.17;;;21.70;;
40453;SDS011;26160;51.858;4.398;2022-12-18T07:39:38;42.90;;;21.70;;
40453;SDS011;26160;51.858;4.398;2022-12-18T07:42:07;43.57;;;21.40;;
40453;SDS011;26160;51.858;4.398;2022-12-18T07:44:52;43.20;;;20.77;;
40453;SDS011;26160;51.858;4.398;2022-12-18T07:47:18;43.10;;;21.97;;
40453;SDS011;26160;51.858;4.398;2022-12-18T07:49:44;43.73;;;21.57;;
40453;SDS011;26160;51.858;4.398;2022-12-18T07:52:10;40.07;;;20.37;;
40453;SDS011;26160;51.858;4.398;2022-12-18T07:54:38;41.27;;;20.20;;
40453;SDS011;26160;51.858;4.398;2022-12-18T07:57:04;47.77;;;22.80;;
40453;SDS011;26160;51.858;4.398;2022-12-18T07:59:30;43.97;;;19.73;;
40453;SDS011;26160;51.858;4.398;2022-12-18T08:01:56;43.97;;;20.67;;
40453;SDS011;26160;51.858;4.398;2022-12-18T08:04:22;38.80;;;19.83;;
40453;SDS011;26160;51.858;4.398;2022-12-18T08:06:49;40.43;;;19.40;;
40453;SDS011;26160;51.858;4.398;2022-12-18T08:09:15;40.77;;;20.17;;
40453;SDS011;26160;51.858;4.398;2022-12-18T08:11:41;40.37;;;20.90;;
40453;SDS011;26160;51.858;4.398;2022-12-18T08:14:08;40.20;;;19.43;;
40453;SDS011;26160;51.858;4.398;2022-12-18T08:16:34;41.63;;;20.17;;
40453;SDS011;26160;51.858;4.398;2022-12-18T08:19:00;37.37;;;19.83;;
40453;SDS011;26160;51.858;4.398;2022-12-18T08:21:28;39.37;;;18.73;;
40453;SDS011;26160;51.858;4.398;2022-12-18T08:23:56;39.60;;;20.13;;
40453;SDS011;26160;51.858;4.398;2022-12-18T08:26:25;36.27;;;19.57;;
40453;SDS011;26160;51.858;4.398;2022-12-18T08:28:53;45.07;;;22.20;;
40453;SDS011;26160;51.858;4.398;2022-12-18T08:31:20;46.20;;;21.33;;
40453;SDS011;26160;51.858;4.398;2022-12-18T08:33:50;51.07;;;23.33;;
40453;SDS011;26160;51.858;4.398;2022-12-18T08:36:18;50.80;;;22.50;;
40453;SDS011;26160;51.858;4.398;2022-12-18T08:38:48;48.93;;;23.27;;
40453;SDS011;26160;51.858;4.398;2022-12-18T08:41:14;57.47;;;27.57;;
40453;SDS011;26160;51.858;4.398;2022-12-18T08:43:42;57.63;;;24.73;;
40453;SDS011;26160;51.858;4.398;2022-12-18T08:46:27;47.40;;;22.13;;
40453;SDS011;26160;51.858;4.398;2022-12-18T08:48:59;37.95;;;21.42;;
40453;SDS011;26160;51.858;4.398;2022-12-18T08:51:25;38.13;;;20.60;;
40453;SDS011;26160;51.858;4.398;2022-12-18T08:53:51;43.87;;;23.10;;
40453;SDS011;26160;51.858;4.398;2022-12-18T08:56:17;37.67;;;20.60;;
40453;SDS011;26160;51.858;4.398;2022-12-18T08:58:43;40.37;;;20.60;;
40453;SDS011;26160;51.858;4.398;2022-12-18T09:01:11;41.77;;;20.40;;
40453;SDS011;26160;51.858;4.398;2022-12-18T09:03:39;41.07;;;21.63;;
40453;SDS011;26160;51.858;4.398;2022-12-18T09:06:05;37.60;;;20.17;;
40453;SDS011;26160;51.858;4.398;2022-12-18T09:08:32;38.87;;;21.47;;
40453;SDS011;26160;51.858;4.398;2022-12-18T09:10:59;39.23;;;21.90;;
40453;SDS011;26160;51.858;4.398;2022-12-18T09:13:25;42.50;;;20.90;;
40453;SDS011;26160;51.858;4.398;2022-12-18T09:15:52;42.93;;;22.47;;
40453;SDS011;26160;51.858;4.398;2022-12-18T09:18:20;38.13;;;21.10;;
40453;SDS011;26160;51.858;4.398;2022-12-18T09:20:47;40.37;;;20.63;;
40453;SDS011;26160;51.858;4.398;2022-12-18T09:23:15;32.93;;;18.83;;
40453;SDS011;26160;51.858;4.398;2022-12-18T09:25:41;38.83;;;21.23;;
40453;SDS011;26160;51.858;4.398;2022-12-18T09:28:12;40.27;;;21.03;;
40453;SDS011;26160;51.858;4.398;2022-12-18T09:30:41;39.75;;;21.30;;
40453;SDS011;26160;51.858;4.398;2022-12-18T09:33:10;42.00;;;21.50;;
40453;SDS011;26160;51.858;4.398;2022-12-18T09:35:36;40.17;;;21.27;;
40453;SDS011;26160;51.858;4.398;2022-12-18T09:38:04;40.83;;;22.03;;
40453;SDS011;26160;51.858;4.398;2022-12-18T09:40:41;40.53;;;21.63;;
40453;SDS011;26160;51.858;4.398;2022-12-18T09:43:14;38.03;;;21.10;;
40453;SDS011;26160;51.858;4.398;2022-12-18T09:45:58;36.63;;;19.87;;
40453;SDS011;26160;51.858;4.398;2022-12-18T09:48:28;38.13;;;21.37;;
40453;SDS011;26160;51.858;4.398;2022-12-18T09:51:17;39.27;;;20.50;;
40453;SDS011;26160;51.858;4.398;2022-12-18T09:53:57;34.43;;;20.03;;
40453;SDS011;26160;51.858;4.398;2022-12-18T09:59:37;34.50;;;19.87;;
40453;SDS011;26160;51.858;4.398;2022-12-18T10:02:20;34.67;;;18.13;;
40453;SDS011;26160;51.858;4.398;2022-12-18T10:04:52;33.27;;;19.20;;
40453;SDS011;26160;51.858;4.398;2022-12-18T10:07:35;40.33;;;20.80;;
40453;SDS011;26160;51.858;4.398;2022-12-18T10:15:34;71.40;;;40.23;;
40453;SDS011;26160;51.858;4.398;2022-12-18T10:21:04;32.78;;;18.98;;
40453;SDS011;26160;51.858;4.398;2022-12-18T10:23:42;35.57;;;19.13;;
40453;SDS011;26160;51.858;4.398;2022-12-18T10:26:21;35.13;;;20.83;;
40453;SDS011;26160;51.858;4.398;2022-12-18T10:28:47;41.03;;;22.37;;
40453;SDS011;26160;51.858;4.398;2022-12-18T10:33:44;33.57;;;19.20;;
40453;SDS011;26160;51.858;4.398;2022-12-18T10:36:10;32.50;;;18.40;;
40453;SDS011;26160;51.858;4.398;2022-12-18T10:38:37;34.47;;;20.27;;
40453;SDS011;26160;51.858;4.398;2022-12-18T10:41:22;33.27;;;18.30;;
40453;SDS011;26160;51.858;4.398;2022-12-18T10:46:45;30.10;;;18.20;;
40453;SDS011;26160;51.858;4.398;2022-12-18T10:49:23;31.97;;;18.77;;
40453;SDS011;26160;51.858;4.398;2022-12-18T10:51:49;31.37;;;18.03;;
40453;SDS011;26160;51.858;4.398;2022-12-18T10:54:23;38.27;;;21.67;;
40453;SDS011;26160;51.858;4.398;2022-12-18T10:56:50;37.37;;;21.77;;
40453;SDS011;26160;51.858;4.398;2022-12-18T10:59:18;35.83;;;20.00;;
40453;SDS011;26160;51.858;4.398;2022-12-18T11:01:45;33.03;;;20.57;;
40453;SDS011;26160;51.858;4.398;2022-12-18T11:04:22;35.63;;;20.70;;
40453;SDS011;26160;51.858;4.398;2022-12-18T11:07:07;38.83;;;23.15;;
40453;SDS011;26160;51.858;4.398;2022-12-18T11:09:35;34.80;;;21.63;;
40453;SDS011;26160;51.858;4.398;2022-12-18T11:17:20;37.13;;;19.30;;
40453;SDS011;26160;51.858;4.398;2022-12-18T11:19:54;39.07;;;20.67;;
40453;SDS011;26160;51.858;4.398;2022-12-18T11:22:28;38.80;;;22.00;;
40453;SDS011;26160;51.858;4.398;2022-12-18T11:25:00;31.03;;;18.97;;
40453;SDS011;26160;51.858;4.398;2022-12-18T11:27:36;28.57;;;17.10;;
40453;SDS011;26160;51.858;4.398;2022-12-18T11:38:12;33.17;;;18.37;;
40453;SDS011;26160;51.858;4.398;2022-12-18T11:41:09;33.10;;;18.13;;
40453;SDS011;26160;51.858;4.398;2022-12-18T11:43:55;29.20;;;17.17;;
40453;SDS011;26160;51.858;4.398;2022-12-18T11:46:29;31.37;;;18.43;;
40453;SDS011;26160;51.858;4.398;2022-12-18T11:49:01;27.48;;;17.42;;
40453;SDS011;26160;51.858;4.398;2022-12-18T11:51:58;30.23;;;17.63;;
40453;SDS011;26160;51.858;4.398;2022-12-18T11:54:41;28.27;;;17.03;;
40453;SDS011;26160;51.858;4.398;2022-12-18T11:57:11;27.17;;;16.43;;
40453;SDS011;26160;51.858;4.398;2022-12-18T12:00:07;30.02;;;17.20;;
40453;SDS011;26160;51.858;4.398;2022-12-18T12:05:38;32.33;;;18.73;;
40453;SDS011;26160;51.858;4.398;2022-12-18T12:11:04;27.83;;;16.07;;
40453;SDS011;26160;51.858;4.398;2022-12-18T12:13:59;32.87;;;19.13;;
40453;SDS011;26160;51.858;4.398;2022-12-18T12:16:37;32.17;;;18.93;;
40453;SDS011;26160;51.858;4.398;2022-12-18T12:19:26;32.50;;;19.10;;
40453;SDS011;26160;51.858;4.398;2022-12-18T12:27:28;30.13;;;18.63;;
40453;SDS011;26160;51.858;4.398;2022-12-18T12:38:22;29.60;;;18.03;;
40453;SDS011;26160;51.858;4.398;2022-12-18T12:41:15;30.83;;;18.20;;
40453;SDS011;26160;51.858;4.398;2022-12-18T12:44:03;27.97;;;17.37;;
40453;SDS011;26160;51.858;4.398;2022-12-18T12:46:34;26.33;;;16.83;;
40453;SDS011;26160;51.858;4.398;2022-12-18T12:49:09;27.83;;;17.33;;
40453;SDS011;26160;51.858;4.398;2022-12-18T12:51:43;30.77;;;18.20;;
40453;SDS011;26160;51.858;4.398;2022-12-18T12:54:16;28.60;;;16.92;;
40453;SDS011;26160;51.858;4.398;2022-12-18T12:57:02;29.95;;;15.82;;
40453;SDS011;26160;51.858;4.398;2022-12-18T13:12:59;28.37;;;16.97;;
40453;SDS011;26160;51.858;4.398;2022-12-18T13:15:42;28.33;;;16.77;;
40453;SDS011;26160;51.858;4.398;2022-12-18T13:20:43;26.03;;;15.87;;
40453;SDS011;26160;51.858;4.398;2022-12-18T13:25:53;30.00;;;17.43;;
40453;SDS011;26160;51.858;4.398;2022-12-18T13:28:21;30.03;;;17.20;;
40453;SDS011;26160;51.858;4.398;2022-12-18T13:30:54;33.07;;;18.23;;
40453;SDS011;26160;51.858;4.398;2022-12-18T13:41:49;30.93;;;18.20;;
40453;SDS011;26160;51.858;4.398;2022-12-18T13:46:49;30.77;;;18.35;;
40453;SDS011;26160;51.858;4.398;2022-12-18T13:49:20;28.47;;;17.53;;
40453;SDS011;26160;51.858;4.398;2022-12-18T13:51:56;26.53;;;16.93;;
40453;SDS011;26160;51.858;4.398;2022-12-18T13:54:28;29.07;;;17.67;;
40453;SDS011;26160;51.858;4.398;2022-12-18T13:56:59;29.90;;;17.17;;
40453;SDS011;26160;51.858;4.398;2022-12-18T13:59:47;30.87;;;17.33;;
40453;SDS011;26160;51.858;4.398;2022-12-18T14:02:13;33.60;;;18.17;;
40453;SDS011;26160;51.858;4.398;2022-12-18T14:04:46;30.80;;;18.40;;
40453;SDS011;26160;51.858;4.398;2022-12-18T14:07:14;32.33;;;19.67;;
40453;SDS011;26160;51.858;4.398;2022-12-18T14:09:44;28.63;;;17.33;;
40453;SDS011;26160;51.858;4.398;2022-12-18T14:12:28;28.97;;;18.13;;
40453;SDS011;26160;51.858;4.398;2022-12-18T14:15:26;29.47;;;18.03;;
40453;SDS011;26160;51.858;4.398;2022-12-18T14:18:09;32.63;;;18.47;;
40453;SDS011;26160;51.858;4.398;2022-12-18T14:20:52;30.17;;;17.57;;
40453;SDS011;26160;51.858;4.398;2022-12-18T14:23:55;32.27;;;18.30;;
40453;SDS011;26160;51.858;4.398;2022-12-18T14:26:24;30.83;;;17.43;;
40453;SDS011;26160;51.858;4.398;2022-12-18T14:28:55;32.83;;;18.83;;
40453;SDS011;26160;51.858;4.398;2022-12-18T14:31:24;30.63;;;18.77;;
40453;SDS011;26160;51.858;4.398;2022-12-18T14:33:51;35.30;;;19.13;;
40453;SDS011;26160;51.858;4.398;2022-12-18T14:36:22;26.93;;;17.50;;
40453;SDS011;26160;51.858;4.398;2022-12-18T14:38:50;27.27;;;17.10;;
40453;SDS011;26160;51.858;4.398;2022-12-18T14:41:21;31.33;;;19.07;;
40453;SDS011;26160;51.858;4.398;2022-12-18T14:43:49;35.27;;;20.70;;
40453;SDS011;26160;51.858;4.398;2022-12-18T14:49:01;31.23;;;18.53;;
40453;SDS011;26160;51.858;4.398;2022-12-18T14:51:55;30.80;;;17.47;;
40453;SDS011;26160;51.858;4.398;2022-12-18T14:54:27;30.97;;;18.23;;
40453;SDS011;26160;51.858;4.398;2022-12-18T14:59:28;39.23;;;19.73;;
40453;SDS011;26160;51.858;4.398;2022-12-18T15:02:00;31.33;;;18.43;;
40453;SDS011;26160;51.858;4.398;2022-12-18T15:04:42;33.83;;;20.00;;
40453;SDS011;26160;51.858;4.398;2022-12-18T15:09:35;32.27;;;19.73;;
40453;SDS011;26160;51.858;4.398;2022-12-18T15:12:02;34.60;;;19.77;;
40453;SDS011;26160;51.858;4.398;2022-12-18T15:14:38;34.40;;;20.13;;
40453;SDS011;26160;51.858;4.398;2022-12-18T15:17:13;31.20;;;19.63;;
40453;SDS011;26160;51.858;4.398;2022-12-18T15:19:45;32.13;;;19.67;;
40453;SDS011;26160;51.858;4.398;2022-12-18T15:22:25;36.03;;;20.97;;
40453;SDS011;26160;51.858;4.398;2022-12-18T15:24:54;36.47;;;19.50;;
40453;SDS011;26160;51.858;4.398;2022-12-18T15:27:30;34.57;;;20.17;;
40453;SDS011;26160;51.858;4.398;2022-12-18T15:29:59;37.47;;;22.20;;
40453;SDS011;26160;51.858;4.398;2022-12-18T15:32:42;34.17;;;19.73;;
40453;SDS011;26160;51.858;4.398;2022-12-18T15:37:34;33.83;;;20.10;;
40453;SDS011;26160;51.858;4.398;2022-12-18T15:40:00;33.80;;;20.77;;
40453;SDS011;26160;51.858;4.398;2022-12-18T15:42:28;37.47;;;21.37;;
40453;SDS011;26160;51.858;4.398;2022-12-18T15:45:12;34.93;;;20.47;;
40453;SDS011;26160;51.858;4.398;2022-12-18T15:47:39;35.80;;;21.27;;
40453;SDS011;26160;51.858;4.398;2022-12-18T15:50:07;37.07;;;21.67;;
40453;SDS011;26160;51.858;4.398;2022-12-18T15:52:38;34.97;;;20.40;;
40453;SDS011;26160;51.858;4.398;2022-12-18T15:55:14;33.93;;;20.57;;
40453;SDS011;26160;51.858;4.398;2022-12-18T16:00:26;38.83;;;21.80;;
40453;SDS011;26160;51.858;4.398;2022-12-18T16:02:52;34.97;;;19.80;;
40453;SDS011;26160;51.858;4.398;2022-12-18T16:05:19;38.13;;;21.37;;
40453;SDS011;26160;51.858;4.398;2022-12-18T16:07:47;35.33;;;20.67;;
40453;SDS011;26160;51.858;4.398;2022-12-18T16:10:13;34.80;;;19.63;;
40453;SDS011;26160;51.858;4.398;2022-12-18T16:12:40;36.83;;;21.60;;
40453;SDS011;26160;51.858;4.398;2022-12-18T16:15:07;34.30;;;21.10;;
40453;SDS011;26160;51.858;4.398;2022-12-18T16:17:36;36.67;;;21.37;;
40453;SDS011;26160;51.858;4.398;2022-12-18T16:20:02;38.50;;;21.80;;
40453;SDS011;26160;51.858;4.398;2022-12-18T16:22:30;40.10;;;23.10;;
40453;SDS011;26160;51.858;4.398;2022-12-18T16:24:56;40.83;;;24.40;;
40453;SDS011;26160;51.858;4.398;2022-12-18T16:27:23;41.33;;;22.90;;
40453;SDS011;26160;51.858;4.398;2022-12-18T16:29:50;36.00;;;22.23;;
40453;SDS011;26160;51.858;4.398;2022-12-18T16:32:18;37.40;;;20.93;;
40453;SDS011;26160;51.858;4.398;2022-12-18T16:34:46;38.70;;;21.60;;